Time;durP1;ratioP1;P1;durP2;ratioP2;P2;SDS_P1;SDS_P2;PMS_P1;PMS_P2;Temp;Humidity;BMP_temperature;BMP_pressure;BME280_temperature;BME280_humidity;BME280_pressure;Samples;Min_cycle;Max_cycle;Signal;HPM_P1;HPM_P2
2021/01/27 00:00:43;;;;;;;11.70;4.00;;;0.90;99.90;;;;;;5049254;28;20476;-67
2021/01/27 00:03:10;;;;;;;6.37;4.73;;;0.90;99.90;;;;;;5043053;28;20468;-67
2021/01/27 00:05:38;;;;;;;5.77;4.10;;;0.90;99.90;;;;;;5048894;28;20436;-67
2021/01/27 00:08:06;;;;;;;6.43;4.40;;;0.90;99.90;;;;;;5049900;28;20451;-68
2021/01/27 00:10:34;;;;;;;6.50;4.20;;;0.90;99.90;;;;;;5048162;28;20440;-68
2021/01/27 00:13:01;;;;;;;7.53;4.47;;;0.90;99.90;;;;;;5055349;28;20513;-67
2021/01/27 00:15:29;;;;;;;5.80;4.37;;;0.90;99.90;;;;;;5051947;28;20428;-69
2021/01/27 00:17:56;;;;;;;6.17;4.50;;;0.90;99.90;;;;;;5049244;28;20849;-69
2021/01/27 00:20:24;;;;;;;4.87;4.23;;;0.90;99.90;;;;;;5049220;28;20486;-69
2021/01/27 00:22:51;;;;;;;13.23;5.23;;;0.90;99.90;;;;;;5044444;28;20472;-69
2021/01/27 00:25:22;;;;;;;6.77;4.30;;;1.00;99.90;;;;;;5049071;28;20502;-69
2021/01/27 00:27:49;;;;;;;5.30;4.40;;;1.00;99.90;;;;;;5049405;28;20827;-69
2021/01/27 00:30:17;;;;;;;5.30;4.17;;;1.00;99.90;;;;;;5049853;28;20482;-69
2021/01/27 00:32:44;;;;;;;7.00;4.50;;;1.00;99.90;;;;;;5049453;28;20452;-69
2021/01/27 00:35:11;;;;;;;5.57;3.93;;;1.10;99.90;;;;;;5041363;28;20447;-69
2021/01/27 00:37:38;;;;;;;7.63;5.25;;;1.10;99.90;;;;;;5048377;28;20428;-69
2021/01/27 00:40:06;;;;;;;6.63;5.40;;;1.10;99.90;;;;;;5043161;28;20207;-69
2021/01/27 00:42:34;;;;;;;6.20;4.97;;;1.10;99.90;;;;;;5049263;28;20471;-69
2021/01/27 00:45:01;;;;;;;4.93;4.33;;;1.10;99.90;;;;;;5049729;28;20444;-69
2021/01/27 00:47:28;;;;;;;5.17;4.20;;;1.20;99.90;;;;;;5043407;28;20443;-69
2021/01/27 00:49:54;;;;;;;6.10;4.10;;;1.20;99.90;;;;;;5049176;28;20428;-69
2021/01/27 00:52:21;;;;;;;5.93;4.20;;;1.20;99.90;;;;;;5048976;28;20460;-69
2021/01/27 00:54:47;;;;;;;4.90;4.10;;;1.10;99.90;;;;;;5047536;28;20467;-69
2021/01/27 00:57:14;;;;;;;11.23;4.87;;;1.10;99.90;;;;;;5048184;28;20429;-69
2021/01/27 00:59:41;;;;;;;5.30;4.37;;;1.00;99.90;;;;;;5048749;28;20502;-69
2021/01/27 01:02:08;;;;;;;6.77;5.33;;;1.10;99.90;;;;;;5049270;28;20483;-69
2021/01/27 01:04:34;;;;;;;6.03;5.40;;;1.10;99.90;;;;;;5049538;28;20428;-69
2021/01/27 01:07:01;;;;;;;5.60;4.80;;;1.00;99.90;;;;;;5049445;28;20436;-69
2021/01/27 01:09:27;;;;;;;6.90;5.43;;;0.90;99.90;;;;;;5049824;28;20432;-69
2021/01/27 01:11:55;;;;;;;7.77;5.33;;;0.90;99.90;;;;;;5049412;28;20850;-70
2021/01/27 01:14:21;;;;;;;6.80;5.00;;;0.90;99.90;;;;;;5052168;28;20428;-69
2021/01/27 01:16:49;;;;;;;8.97;5.23;;;1.00;99.90;;;;;;5053173;28;20432;-69
2021/01/27 01:19:16;;;;;;;7.47;6.10;;;1.00;99.90;;;;;;5052448;28;20925;-67
2021/01/27 01:21:42;;;;;;;7.70;5.23;;;1.00;99.90;;;;;;5051517;28;20590;-67
2021/01/27 01:24:09;;;;;;;6.80;5.30;;;1.10;99.90;;;;;;5052414;28;20482;-67
2021/01/27 01:26:36;;;;;;;6.73;6.00;;;1.10;99.90;;;;;;5052771;28;20436;-67
2021/01/27 01:29:03;;;;;;;6.60;5.87;;;1.20;99.90;;;;;;5052647;28;20955;-67
2021/01/27 01:31:30;;;;;;;9.37;5.87;;;1.20;99.90;;;;;;5052683;28;20467;-67
2021/01/27 01:33:57;;;;;;;8.30;5.60;;;1.20;99.90;;;;;;5052762;28;20848;-67
2021/01/27 01:36:24;;;;;;;8.80;6.53;;;1.10;99.90;;;;;;5051740;28;20757;-67
2021/01/27 01:38:50;;;;;;;9.87;6.47;;;1.10;99.90;;;;;;5052471;28;20586;-67
2021/01/27 01:41:17;;;;;;;7.67;5.97;;;1.00;99.90;;;;;;5052503;28;20476;-67
2021/01/27 01:43:43;;;;;;;9.80;6.10;;;1.00;99.90;;;;;;5052814;28;20517;-67
2021/01/27 01:46:14;;;;;;;7.70;6.10;;;1.00;99.90;;;;;;5052595;28;20949;-67
2021/01/27 01:48:44;;;;;;;6.60;5.57;;;0.90;99.90;;;;;;5052395;28;20502;-67
2021/01/27 01:51:18;;;;;;;9.20;6.27;;;0.90;99.90;;;;;;5052618;28;20429;-67
2021/01/27 01:53:49;;;;;;;7.73;6.53;;;0.90;99.90;;;;;;5052376;28;20489;-68
2021/01/27 01:56:18;;;;;;;9.30;6.73;;;0.90;99.90;;;;;;5052541;28;21040;-68
2021/01/27 01:58:44;;;;;;;7.63;5.90;;;0.90;99.90;;;;;;5052351;28;20424;-69
2021/01/27 02:01:11;;;;;;;11.27;6.50;;;0.90;99.90;;;;;;5051820;28;20464;-68
2021/01/27 02:03:39;;;;;;;8.30;5.87;;;0.90;99.90;;;;;;5052235;28;20490;-69
2021/01/27 02:06:09;;;;;;;7.10;5.77;;;0.90;99.90;;;;;;5052065;28;20431;-69
2021/01/27 02:08:42;;;;;;;10.27;6.60;;;0.90;99.90;;;;;;5052385;28;20909;-69
2021/01/27 02:11:10;;;;;;;8.33;5.70;;;0.90;99.90;;;;;;5052176;28;20436;-68
2021/01/27 02:14:09;;;;;;;12.07;7.60;;;0.90;99.90;;;;;;5052075;28;20462;-69
2021/01/27 02:16:42;;;;;;;7.33;6.20;;;0.90;99.90;;;;;;5025316;28;20452;-69
2021/01/27 02:19:55;;;;;;;8.03;6.40;;;0.90;99.90;;;;;;5052121;28;20503;-69
2021/01/27 02:23:00;;;;;;;10.00;6.50;;;0.90;99.90;;;;;;5052069;28;20499;-68
2021/01/27 02:25:55;;;;;;;8.60;5.77;;;0.90;99.90;;;;;;4976722;28;20833;-68
2021/01/27 02:29:01;;;;;;;7.10;6.00;;;1.00;99.90;;;;;;5051932;28;20448;-68
2021/01/27 02:31:37;;;;;;;6.90;5.40;;;0.90;99.90;;;;;;5040803;28;20924;-68
2021/01/27 02:34:39;;;;;;;8.10;6.60;;;0.90;99.90;;;;;;5052053;28;20436;-68
2021/01/27 02:37:11;;;;;;;7.90;6.40;;;0.80;99.90;;;;;;5051916;28;20823;-69
2021/01/27 02:39:43;;;;;;;8.37;6.07;;;0.80;99.90;;;;;;5051893;28;20436;-68
2021/01/27 02:42:18;;;;;;;9.37;6.80;;;0.80;99.90;;;;;;5051902;28;20483;-68
2021/01/27 02:44:49;;;;;;;9.73;7.40;;;0.80;99.90;;;;;;5051867;28;20420;-68
2021/01/27 02:47:30;;;;;;;7.90;7.10;;;0.80;99.90;;;;;;5052194;28;20428;-68
2021/01/27 02:50:01;;;;;;;8.13;6.13;;;0.80;99.90;;;;;;5051361;28;20485;-68
2021/01/27 02:52:34;;;;;;;9.57;6.80;;;0.80;99.90;;;;;;5051398;28;21019;-69
2021/01/27 02:55:08;;;;;;;8.87;6.67;;;0.70;99.90;;;;;;5051143;28;20435;-69
2021/01/27 02:57:38;;;;;;;8.33;6.27;;;0.80;99.90;;;;;;5051243;28;20428;-69
2021/01/27 03:00:10;;;;;;;9.23;6.97;;;0.80;99.90;;;;;;5050920;28;20424;-68
2021/01/27 03:02:42;;;;;;;7.47;6.13;;;0.80;99.90;;;;;;5050923;28;20445;-68
2021/01/27 03:05:14;;;;;;;7.87;5.97;;;0.90;99.90;;;;;;5051544;28;20417;-68
2021/01/27 03:07:44;;;;;;;11.47;7.27;;;0.90;99.90;;;;;;5050937;28;20511;-68
2021/01/27 03:10:15;;;;;;;7.97;6.40;;;0.90;99.90;;;;;;5050614;28;20511;-68
2021/01/27 03:12:42;;;;;;;9.00;6.70;;;0.90;99.90;;;;;;5049993;28;20448;-68
2021/01/27 03:15:11;;;;;;;8.07;5.70;;;0.90;99.90;;;;;;5049567;28;20435;-68
2021/01/27 03:17:41;;;;;;;10.70;5.80;;;1.00;99.90;;;;;;5050756;28;20482;-68
2021/01/27 03:20:15;;;;;;;7.43;6.17;;;1.00;99.90;;;;;;5050743;28;20429;-68
2021/01/27 03:22:46;;;;;;;9.47;6.50;;;0.90;99.90;;;;;;5050679;28;20459;-68
2021/01/27 03:25:17;;;;;;;6.10;5.30;;;0.80;99.90;;;;;;5050614;28;20420;-68
2021/01/27 03:27:55;;;;;;;7.10;6.40;;;0.80;99.90;;;;;;5049817;28;20419;-68
2021/01/27 03:30:23;;;;;;;9.00;7.00;;;0.70;99.90;;;;;;5050613;28;20420;-69
2021/01/27 03:32:55;;;;;;;7.50;6.37;;;0.60;99.90;;;;;;5050936;28;20444;-69
2021/01/27 03:35:30;;;;;;;8.80;7.57;;;0.60;99.90;;;;;;5050402;28;20428;-69
2021/01/27 03:38:01;;;;;;;6.73;6.10;;;0.60;99.90;;;;;;5050468;28;20428;-68
2021/01/27 03:40:29;;;;;;;9.60;6.67;;;0.80;99.90;;;;;;5050205;28;20462;-68
2021/01/27 03:43:06;;;;;;;7.33;6.20;;;0.90;99.90;;;;;;5050520;28;20948;-68
2021/01/27 03:45:37;;;;;;;8.70;6.30;;;0.90;99.90;;;;;;5050423;28;20975;-68
2021/01/27 03:48:11;;;;;;;9.83;6.73;;;0.90;99.90;;;;;;5050275;28;20424;-68
2021/01/27 03:50:40;;;;;;;10.70;6.90;;;0.90;99.90;;;;;;5050261;28;20439;-68
2021/01/27 03:53:10;;;;;;;9.43;6.30;;;0.80;99.90;;;;;;5049751;28;20463;-68
2021/01/27 03:55:42;;;;;;;9.33;6.40;;;0.80;99.90;;;;;;5049557;28;20498;-68
2021/01/27 03:58:20;;;;;;;11.43;7.50;;;0.70;99.90;;;;;;5050353;28;20424;-68
2021/01/27 04:00:49;;;;;;;8.80;7.57;;;0.60;99.90;;;;;;5050102;28;20471;-68
2021/01/27 04:03:18;;;;;;;8.17;6.50;;;0.50;99.90;;;;;;5050158;28;20952;-68
2021/01/27 04:05:46;;;;;;;7.47;6.63;;;0.40;99.90;;;;;;5050166;28;20436;-68
2021/01/27 04:08:13;;;;;;;8.23;7.10;;;0.40;99.90;;;;;;5050108;28;20436;-68
2021/01/27 04:10:39;;;;;;;9.47;7.40;;;0.40;99.90;;;;;;5050032;28;20436;-68
2021/01/27 04:13:06;;;;;;;8.57;7.17;;;0.40;99.90;;;;;;5049822;28;20814;-68
2021/01/27 04:15:33;;;;;;;8.30;6.47;;;0.40;99.90;;;;;;5049960;28;20780;-68
2021/01/27 04:17:59;;;;;;;8.80;7.07;;;0.40;99.90;;;;;;5050039;28;20501;-68
2021/01/27 04:20:28;;;;;;;12.17;6.90;;;0.40;99.90;;;;;;5049631;28;20444;-68
2021/01/27 04:22:55;;;;;;;8.90;7.47;;;0.40;99.90;;;;;;5049750;28;20459;-68
2021/01/27 04:25:22;;;;;;;9.27;7.10;;;0.40;99.90;;;;;;5049885;28;20442;-68
2021/01/27 04:27:48;;;;;;;9.38;6.75;;;0.40;99.90;;;;;;5049762;28;20402;-68
2021/01/27 04:30:18;;;;;;;8.70;6.70;;;0.40;99.90;;;;;;5049623;28;20205;-68
2021/01/27 04:32:45;;;;;;;9.40;7.00;;;0.40;99.90;;;;;;5049758;28;20452;-69
2021/01/27 04:35:15;;;;;;;8.50;7.30;;;0.40;99.90;;;;;;5049765;28;20840;-68
2021/01/27 04:37:42;;;;;;;10.00;7.30;;;0.50;99.90;;;;;;5049894;28;20433;-68
2021/01/27 04:40:12;;;;;;;8.70;6.57;;;0.60;99.90;;;;;;5049621;28;20433;-68
2021/01/27 04:42:39;;;;;;;10.73;8.07;;;0.70;99.90;;;;;;5049681;28;20476;-68
2021/01/27 04:45:07;;;;;;;11.80;7.00;;;0.80;99.90;;;;;;5049746;28;20924;-68
2021/01/27 04:47:42;;;;;;;9.70;7.17;;;0.80;99.90;;;;;;5049678;28;20486;-68
2021/01/27 04:50:18;;;;;;;6.73;6.03;;;0.80;99.90;;;;;;5053752;28;20416;-68
2021/01/27 04:52:58;;;;;;;7.70;6.60;;;0.80;99.90;;;;;;5053406;28;20467;-69
2021/01/27 04:55:51;;;;;;;7.30;5.70;;;0.90;99.90;;;;;;5053601;28;20424;-68
2021/01/27 04:58:24;;;;;;;7.83;6.37;;;0.90;99.90;;;;;;5053498;28;20486;-69
2021/01/27 05:01:10;;;;;;;11.27;7.40;;;0.90;99.90;;;;;;5053020;28;20486;-69
2021/01/27 05:03:52;;;;;;;8.60;6.83;;;0.90;99.90;;;;;;5053344;28;20428;-69
2021/01/27 05:06:22;;;;;;;8.43;7.63;;;1.00;99.90;;;;;;5053309;28;20428;-69
2021/01/27 05:09:01;;;;;;;10.80;7.20;;;1.00;99.90;;;;;;5053476;28;20451;-68
2021/01/27 05:11:30;;;;;;;11.03;7.70;;;1.00;99.90;;;;;;5052654;28;20436;-68
2021/01/27 05:13:58;;;;;;;10.07;6.47;;;0.90;99.90;;;;;;5052060;28;20761;-68
2021/01/27 05:16:27;;;;;;;12.90;6.40;;;1.00;99.90;;;;;;5053358;28;20437;-68
2021/01/27 05:18:56;;;;;;;8.63;6.10;;;1.00;99.90;;;;;;5053124;28;20948;-68
2021/01/27 05:21:27;;;;;;;7.77;5.77;;;1.00;99.90;;;;;;5052668;28;20510;-68
2021/01/27 05:23:54;;;;;;;7.77;6.70;;;1.00;99.90;;;;;;5053001;28;20436;-68
2021/01/27 05:26:23;;;;;;;9.17;6.80;;;1.00;99.90;;;;;;5052935;28;20893;-68
2021/01/27 05:29:04;;;;;;;6.23;5.60;;;1.00;99.90;;;;;;5052956;28;20436;-68
2021/01/27 05:31:56;;;;;;;6.07;5.50;;;1.00;99.90;;;;;;5052791;28;20456;-68
2021/01/27 05:34:28;;;;;;;10.63;6.72;;;1.10;99.90;;;;;;5051860;28;20454;-68
2021/01/27 05:36:55;;;;;;;6.30;5.23;;;1.10;99.90;;;;;;5052735;28;20662;-68
2021/01/27 05:39:28;;;;;;;9.43;5.50;;;1.20;99.90;;;;;;5052196;28;20827;-68
2021/01/27 05:42:21;;;;;;;7.30;5.03;;;1.20;99.90;;;;;;5052292;28;20490;-68
2021/01/27 05:44:51;;;;;;;6.90;5.50;;;1.20;99.90;;;;;;5052335;28;20436;-68
2021/01/27 05:47:38;;;;;;;6.20;4.57;;;1.30;99.90;;;;;;5052108;28;20432;-68
2021/01/27 05:50:28;;;;;;;6.40;5.20;;;1.30;99.90;;;;;;5052087;28;20428;-68
2021/01/27 05:52:54;;;;;;;6.53;5.60;;;1.30;99.90;;;;;;5052043;28;20822;-68
2021/01/27 05:55:21;;;;;;;7.03;4.63;;;1.30;99.90;;;;;;5052111;28;20974;-68
2021/01/27 05:57:59;;;;;;;7.97;5.87;;;1.40;99.90;;;;;;5052014;28;20993;-68
2021/01/27 06:00:28;;;;;;;6.70;5.40;;;1.40;99.90;;;;;;5052064;28;20428;-69
2021/01/27 06:02:57;;;;;;;7.63;5.03;;;1.40;99.90;;;;;;5052050;28;20448;-69
2021/01/27 06:05:36;;;;;;;5.57;4.87;;;1.40;99.90;;;;;;5052126;28;20431;-69
2021/01/27 06:08:11;;;;;;;6.63;5.77;;;1.40;99.90;;;;;;5051997;28;20478;-69
2021/01/27 06:10:38;;;;;;;7.23;5.47;;;1.40;99.90;;;;;;5051667;28;20531;-69
2021/01/27 06:13:26;;;;;;;7.20;5.70;;;1.40;99.90;;;;;;5051615;28;20483;-69
2021/01/27 06:15:54;;;;;;;7.13;5.53;;;1.40;99.90;;;;;;5040878;28;20941;-69
2021/01/27 06:18:29;;;;;;;8.13;5.63;;;1.40;99.90;;;;;;5051842;28;20932;-69
2021/01/27 06:21:39;;;;;;;6.93;5.63;;;1.40;99.90;;;;;;5051486;28;20841;-69
2021/01/27 06:24:30;;;;;;;6.27;5.63;;;1.40;99.90;;;;;;5049551;28;20455;-69
2021/01/27 06:27:36;;;;;;;7.37;5.43;;;1.40;99.90;;;;;;5042297;28;20452;-69
2021/01/27 06:30:18;;;;;;;8.07;6.10;;;1.40;99.90;;;;;;5049253;28;21100;-69
2021/01/27 06:33:13;;;;;;;6.47;5.50;;;1.40;99.90;;;;;;5049797;28;20460;-69
2021/01/27 06:35:57;;;;;;;7.07;5.67;;;1.40;99.90;;;;;;5042868;28;20448;-69
2021/01/27 06:38:49;;;;;;;7.73;5.53;;;1.50;99.90;;;;;;5049474;28;20519;-69
2021/01/27 06:41:31;;;;;;;9.23;6.30;;;1.50;99.90;;;;;;5049020;28;20968;-69
2021/01/27 06:44:13;;;;;;;8.83;4.93;;;1.50;99.90;;;;;;5049389;28;20771;-69
2021/01/27 06:47:00;;;;;;;7.43;6.53;;;1.60;99.90;;;;;;5048951;28;20534;-69
2021/01/27 06:49:46;;;;;;;10.13;6.40;;;1.60;99.90;;;;;;5047448;28;20429;-69
2021/01/27 06:52:38;;;;;;;7.30;5.67;;;1.60;99.90;;;;;;5042104;28;20479;-70
2021/01/27 06:55:17;;;;;;;6.53;5.83;;;1.60;99.90;;;;;;4995559;28;20457;-69
2021/01/27 06:58:19;;;;;;;13.63;6.53;;;1.60;99.90;;;;;;5029592;28;21135;-69
2021/01/27 07:01:02;;;;;;;5.97;4.90;;;1.60;99.90;;;;;;5016644;28;20456;-69
2021/01/27 07:03:59;;;;;;;8.93;6.70;;;1.60;99.90;;;;;;5030132;28;20457;-69
2021/01/27 07:06:58;;;;;;;6.60;5.70;;;1.60;99.90;;;;;;5029559;28;20429;-69
2021/01/27 07:09:58;;;;;;;7.40;5.90;;;1.60;99.90;;;;;;5004768;28;21023;-69
2021/01/27 07:12:27;;;;;;;7.33;5.70;;;1.70;99.90;;;;;;5028318;28;21008;-69
2021/01/27 07:15:22;;;;;;;6.23;5.13;;;1.70;99.90;;;;;;5029910;28;20746;-69
2021/01/27 07:18:25;;;;;;;7.87;6.57;;;1.80;99.90;;;;;;5029182;28;20437;-69
2021/01/27 07:20:58;;;;;;;8.40;6.03;;;1.80;99.90;;;;;;5029302;28;20441;-69
2021/01/27 07:23:30;;;;;;;8.10;6.37;;;1.90;99.90;;;;;;5029338;28;20457;-69
2021/01/27 07:26:06;;;;;;;8.87;6.10;;;1.90;99.90;;;;;;5043739;28;20449;-69
2021/01/27 07:28:39;;;;;;;9.80;6.13;;;1.90;99.90;;;;;;5045040;28;20453;-69
2021/01/27 07:31:15;;;;;;;9.60;8.57;;;2.00;99.90;;;;;;5043140;28;20443;-69
2021/01/27 07:33:48;;;;;;;12.90;7.03;;;2.00;99.90;;;;;;5049562;28;20455;-68
2021/01/27 07:36:37;;;;;;;9.33;7.07;;;2.00;99.90;;;;;;5049828;28;20755;-69
2021/01/27 07:39:11;;;;;;;8.90;6.37;;;2.00;99.90;;;;;;5048781;28;20420;-69
2021/01/27 07:41:48;;;;;;;8.97;6.20;;;2.00;99.90;;;;;;5032733;28;20861;-69
2021/01/27 07:44:19;;;;;;;7.20;5.23;;;2.10;99.90;;;;;;5029002;28;20429;-69
2021/01/27 07:46:52;;;;;;;6.00;5.50;;;2.20;99.90;;;;;;5028664;28;20433;-69
2021/01/27 07:49:30;;;;;;;8.20;5.90;;;2.10;99.90;;;;;;5028298;28;20432;-69
2021/01/27 07:52:01;;;;;;;7.90;5.97;;;2.20;99.90;;;;;;5028976;28;20452;-69
2021/01/27 07:54:34;;;;;;;6.47;5.10;;;2.30;99.90;;;;;;5028577;28;20822;-69
2021/01/27 07:57:11;;;;;;;8.77;5.80;;;2.20;99.90;;;;;;5028532;28;20429;-69
2021/01/27 07:59:46;;;;;;;8.20;5.40;;;2.20;99.90;;;;;;5044873;28;20510;-71
2021/01/27 08:02:18;;;;;;;6.60;5.37;;;2.20;99.90;;;;;;5066208;28;20505;-71
2021/01/27 08:04:47;;;;;;;7.00;5.00;;;2.30;99.90;;;;;;5044293;28;20433;-71
2021/01/27 08:07:23;;;;;;;6.67;5.47;;;2.40;99.90;;;;;;5026885;28;20440;-71
2021/01/27 08:09:51;;;;;;;6.70;5.50;;;2.50;99.90;;;;;;5028381;28;20524;-72
2021/01/27 08:12:26;;;;;;;6.33;4.40;;;2.50;99.90;;;;;;5028977;28;20789;-69
2021/01/27 08:15:08;;;;;;;5.67;4.30;;;2.60;99.90;;;;;;5028216;28;20460;-69
2021/01/27 08:18:14;;;;;;;7.40;4.57;;;2.70;99.90;;;;;;5028610;28;20448;-71
2021/01/27 08:20:42;;;;;;;5.10;4.07;;;2.70;99.90;;;;;;5026836;28;20980;-71
2021/01/27 08:23:11;;;;;;;5.73;3.30;;;2.70;99.90;;;;;;5028125;28;20461;-70
2021/01/27 08:25:56;;;;;;;4.90;3.10;;;2.70;99.90;;;;;;5031813;28;20436;-73
2021/01/27 08:28:26;;;;;;;6.27;3.80;;;2.70;99.90;;;;;;5031148;28;20441;-72
2021/01/27 08:31:20;;;;;;;4.60;3.50;;;2.70;99.90;;;;;;5031650;28;21014;-70
2021/01/27 08:33:58;;;;;;;3.40;2.80;;;2.70;99.90;;;;;;5031285;28;20437;-71
2021/01/27 08:37:03;;;;;;;8.13;4.77;;;2.70;99.90;;;;;;5031391;28;20769;-70
2021/01/27 08:39:32;;;;;;;4.43;3.27;;;2.70;99.90;;;;;;5030816;28;20836;-69
2021/01/27 08:42:04;;;;;;;5.20;3.80;;;2.70;99.90;;;;;;5030584;28;20602;-71
2021/01/27 08:44:36;;;;;;;4.57;3.30;;;2.60;99.90;;;;;;5031177;28;20936;-71
2021/01/27 08:47:20;;;;;;;3.87;3.47;;;2.50;99.90;;;;;;5031602;28;20473;-73
2021/01/27 08:49:50;;;;;;;3.73;2.80;;;2.50;99.90;;;;;;5034349;28;20439;-71
2021/01/27 08:52:35;;;;;;;5.13;3.27;;;2.40;99.90;;;;;;5050766;28;20488;-69
2021/01/27 08:55:52;;;;;;;4.67;3.47;;;2.30;99.90;;;;;;5050619;28;20432;-69
2021/01/27 08:58:38;;;;;;;6.00;3.47;;;2.30;99.90;;;;;;5051637;28;20455;-72
2021/01/27 09:01:11;;;;;;;5.17;3.63;;;2.20;99.90;;;;;;5051170;28;20435;-71
2021/01/27 09:04:06;;;;;;;3.97;3.47;;;2.10;99.90;;;;;;5050940;28;20444;-72
2021/01/27 09:06:44;;;;;;;4.67;3.40;;;2.10;99.90;;;;;;5050602;28;20439;-72
2021/01/27 09:09:31;;;;;;;4.63;4.13;;;2.20;99.90;;;;;;5048962;28;20836;-71
2021/01/27 09:12:04;;;;;;;4.43;3.53;;;2.30;99.90;;;;;;5050764;28;20990;-70
2021/01/27 09:14:31;;;;;;;4.10;3.10;;;2.30;99.90;;;;;;5050314;28;20920;-72
2021/01/27 09:16:59;;;;;;;5.53;3.20;;;2.40;99.90;;;;;;5049945;28;20440;-73
2021/01/27 09:19:29;;;;;;;5.93;4.40;;;2.40;99.90;;;;;;5050439;28;20436;-71
2021/01/27 09:22:09;;;;;;;4.73;4.20;;;2.40;99.90;;;;;;5025348;28;735131;-73
2021/01/27 09:24:43;;;;;;;4.93;4.10;;;2.40;99.90;;;;;;5052240;28;20477;-76
2021/01/27 09:27:23;;;;;;;5.40;3.63;;;2.40;99.90;;;;;;5051927;28;20436;-76
2021/01/27 09:29:59;;;;;;;6.63;3.70;;;2.40;99.90;;;;;;5051045;28;20432;-70
2021/01/27 09:32:27;;;;;;;5.03;4.17;;;2.40;99.90;;;;;;5051914;28;20460;-72
2021/01/27 09:34:54;;;;;;;5.70;4.30;;;2.40;99.90;;;;;;5050999;28;20443;-72
2021/01/27 09:37:29;;;;;;;5.67;4.07;;;2.40;99.90;;;;;;5050355;28;20432;-69
2021/01/27 09:40:08;;;;;;;5.90;4.70;;;2.30;99.90;;;;;;5031072;28;20440;-70
2021/01/27 09:42:35;;;;;;;4.97;4.20;;;2.30;99.90;;;;;;5030827;28;20476;-71
2021/01/27 09:45:04;;;;;;;5.87;4.00;;;2.20;99.90;;;;;;5031071;28;20468;-70
2021/01/27 09:47:33;;;;;;;6.50;4.70;;;2.10;99.90;;;;;;5031302;28;20437;-70
2021/01/27 09:50:02;;;;;;;7.03;4.20;;;2.10;99.90;;;;;;5030982;28;20429;-73
2021/01/27 09:52:31;;;;;;;4.67;4.17;;;2.10;99.90;;;;;;5030709;28;20455;-73
2021/01/27 09:55:04;;;;;;;5.90;4.07;;;2.10;99.90;;;;;;5030916;28;20441;-73
2021/01/27 09:57:32;;;;;;;5.37;4.00;;;2.00;99.90;;;;;;5031874;28;20406;-68
2021/01/27 09:59:59;;;;;;;8.00;4.40;;;2.00;99.90;;;;;;5031360;28;20929;-70
2021/01/27 10:02:28;;;;;;;6.10;5.47;;;2.00;99.90;;;;;;5033696;28;20536;-71
2021/01/27 10:04:55;;;;;;;5.10;4.13;;;2.00;99.90;;;;;;5036221;28;20786;-72
2021/01/27 10:07:26;;;;;;;6.97;4.30;;;2.00;99.90;;;;;;5031445;28;20434;-74
2021/01/27 10:09:57;;;;;;;6.30;4.63;;;2.00;99.90;;;;;;5030747;28;20448;-72
2021/01/27 10:12:26;;;;;;;7.10;5.77;;;2.00;99.90;;;;;;5031132;28;20461;-72
2021/01/27 10:15:09;;;;;;;5.33;4.47;;;2.00;99.90;;;;;;5031029;28;20929;-70
2021/01/27 10:17:37;;;;;;;5.90;4.47;;;2.00;99.90;;;;;;5030762;28;20823;-70
2021/01/27 10:20:21;;;;;;;7.47;5.57;;;2.10;99.90;;;;;;5030710;28;20520;-71
2021/01/27 10:22:56;;;;;;;7.23;4.90;;;2.10;99.90;;;;;;5030571;28;20496;-71
2021/01/27 10:25:32;;;;;;;8.80;5.90;;;2.10;99.90;;;;;;5030848;28;20549;-73
2021/01/27 10:28:22;;;;;;;5.70;5.10;;;2.10;99.90;;;;;;5030773;28;20708;-72
2021/01/27 10:30:53;;;;;;;7.93;5.30;;;2.10;99.90;;;;;;5030665;28;20449;-72
2021/01/27 10:33:31;;;;;;;7.87;5.47;;;2.20;99.90;;;;;;5031101;28;20638;-72
2021/01/27 10:35:58;;;;;;;9.70;5.30;;;2.20;99.90;;;;;;5031025;28;20441;-73
2021/01/27 10:38:27;;;;;;;6.23;5.10;;;2.20;99.90;;;;;;5030584;28;20465;-73
2021/01/27 10:41:07;;;;;;;5.97;4.53;;;2.40;99.90;;;;;;5030482;28;20437;-74
2021/01/27 10:43:34;;;;;;;8.47;5.20;;;2.50;99.90;;;;;;5030425;28;20496;-73
2021/01/27 10:46:19;;;;;;;8.00;4.63;;;2.60;99.90;;;;;;5028839;28;20433;-72
2021/01/27 10:48:46;;;;;;;7.30;4.50;;;2.70;99.90;;;;;;5030483;28;20599;-75
2021/01/27 10:51:14;;;;;;;9.33;4.10;;;2.80;99.90;;;;;;5030413;28;20465;-72
2021/01/27 10:53:43;;;;;;;5.20;3.90;;;2.80;99.90;;;;;;5030688;28;20435;-74
2021/01/27 10:56:12;;;;;;;6.37;4.07;;;2.80;99.90;;;;;;5030503;28;20956;-73
2021/01/27 10:58:39;;;;;;;8.47;4.70;;;2.80;99.90;;;;;;5030208;28;20495;-72
2021/01/27 11:01:06;;;;;;;4.93;4.20;;;2.80;99.90;;;;;;5030440;28;20437;-75
2021/01/27 11:03:33;;;;;;;5.47;4.90;;;2.70;99.90;;;;;;5031500;28;20833;-73
2021/01/27 11:06:02;;;;;;;7.67;4.23;;;2.80;99.90;;;;;;5031042;28;20475;-74
2021/01/27 11:08:33;;;;;;;7.03;3.83;;;2.80;99.90;;;;;;5031256;28;20498;-76
2021/01/27 11:11:05;;;;;;;4.13;3.53;;;2.90;99.90;;;;;;5030415;28;20492;-75
2021/01/27 11:13:34;;;;;;;3.83;3.10;;;3.00;99.90;;;;;;5031292;28;20469;-76
2021/01/27 11:16:01;;;;;;;7.13;3.90;;;3.10;99.90;;;;;;5031182;28;20496;-75
2021/01/27 11:18:30;;;;;;;5.73;4.73;;;3.00;99.90;;;;;;5030730;28;20511;-73
2021/01/27 11:20:58;;;;;;;6.53;5.47;;;3.00;99.90;;;;;;5030330;28;20812;-73
2021/01/27 11:23:24;;;;;;;4.50;3.97;;;3.00;99.90;;;;;;5029745;28;20452;-75
2021/01/27 11:25:53;;;;;;;7.57;4.90;;;3.00;99.90;;;;;;5029702;28;20429;-74
2021/01/27 11:28:21;;;;;;;6.47;4.70;;;3.00;99.90;;;;;;5029776;28;20441;-71
2021/01/27 11:30:48;;;;;;;5.60;4.50;;;3.00;99.90;;;;;;5029184;28;21115;-71
2021/01/27 11:33:15;;;;;;;6.23;4.90;;;3.00;99.90;;;;;;5029402;28;20964;-70
2021/01/27 11:35:42;;;;;;;6.17;5.27;;;3.00;99.90;;;;;;5029203;28;20433;-71
2021/01/27 11:38:09;;;;;;;6.80;5.43;;;3.00;99.90;;;;;;5029262;28;20432;-72
2021/01/27 11:40:38;;;;;;;7.20;4.50;;;3.00;99.90;;;;;;5028805;28;20460;-71
2021/01/27 11:43:05;;;;;;;6.63;5.80;;;3.10;99.90;;;;;;5040945;28;20480;-73
2021/01/27 11:45:32;;;;;;;9.80;6.63;;;3.20;99.90;;;;;;5048718;28;20428;-73
2021/01/27 11:47:59;;;;;;;7.00;6.10;;;3.30;99.90;;;;;;5050240;28;20440;-72
2021/01/27 11:50:28;;;;;;;7.33;5.90;;;3.30;99.90;;;;;;5055935;28;20468;-73
2021/01/27 11:52:55;;;;;;;7.00;5.67;;;3.40;99.90;;;;;;5049297;28;20452;-72
2021/01/27 11:55:22;;;;;;;6.57;5.30;;;3.60;99.90;;;;;;5049285;28;20436;-76
2021/01/27 11:57:49;;;;;;;5.40;4.37;;;3.70;99.90;;;;;;5048478;28;20432;-75
2021/01/27 12:00:20;;;;;;;7.80;4.77;;;3.80;99.90;;;;;;5048735;28;20474;-73
2021/01/27 12:02:47;;;;;;;4.77;4.23;;;3.90;99.90;;;;;;5049176;28;20537;-74
2021/01/27 12:05:15;;;;;;;5.30;4.53;;;3.90;99.90;;;;;;5049415;28;20436;-75
2021/01/27 12:07:42;;;;;;;4.80;4.30;;;3.80;99.90;;;;;;5049086;28;20527;-74
2021/01/27 12:10:09;;;;;;;4.83;4.23;;;3.80;99.90;;;;;;5049019;28;20432;-74
2021/01/27 12:12:36;;;;;;;8.87;4.97;;;3.90;99.90;;;;;;5048473;28;20979;-73
2021/01/27 12:15:03;;;;;;;4.70;4.10;;;3.90;99.90;;;;;;5048542;28;20806;-72
2021/01/27 12:17:30;;;;;;;5.23;4.53;;;3.90;99.90;;;;;;5047049;28;21067;-72
2021/01/27 12:19:58;;;;;;;6.47;4.73;;;3.90;99.90;;;;;;5048119;28;20452;-71
2021/01/27 12:22:24;;;;;;;6.77;5.80;;;3.90;99.90;;;;;;5048693;28;20959;-72
2021/01/27 12:24:51;;;;;;;5.30;4.53;;;3.90;99.90;;;;;;5055742;28;20451;-72
2021/01/27 12:27:17;;;;;;;5.37;4.83;;;3.80;99.90;;;;;;5052119;28;20444;-71
2021/01/27 12:29:44;;;;;;;7.20;5.00;;;3.80;99.90;;;;;;5061863;28;20442;-71
2021/01/27 12:32:10;;;;;;;5.63;4.03;;;3.70;99.90;;;;;;5054940;28;20476;-72
2021/01/27 12:34:37;;;;;;;5.97;4.30;;;3.80;99.90;;;;;;5049612;28;20449;-72
2021/01/27 12:37:04;;;;;;;5.40;3.70;;;3.90;99.90;;;;;;5054967;28;20448;-73
2021/01/27 12:39:31;;;;;;;4.67;4.10;;;4.00;99.90;;;;;;5056606;28;20921;-71
2021/01/27 12:41:57;;;;;;;5.43;4.93;;;4.10;99.90;;;;;;5059526;28;20486;-71
2021/01/27 12:44:24;;;;;;;5.53;3.10;;;4.40;99.90;;;;;;5060105;28;20431;-71
2021/01/27 12:46:53;;;;;;;4.83;3.17;;;4.40;99.90;;;;;;5063977;28;20443;-71
2021/01/27 12:49:20;;;;;;;5.90;3.57;;;4.40;99.90;;;;;;5059667;28;20522;-71
2021/01/27 12:51:46;;;;;;;3.40;2.80;;;4.50;99.90;;;;;;5056814;28;20456;-73
2021/01/27 12:54:14;;;;;;;3.30;2.63;;;4.60;99.90;;;;;;5053762;28;20451;-71
2021/01/27 12:56:40;;;;;;;3.23;2.50;;;4.80;99.90;;;;;;5052969;28;20943;-72
2021/01/27 12:59:07;;;;;;;5.23;2.90;;;4.70;99.90;;;;;;5057112;28;20436;-71
2021/01/27 13:01:34;;;;;;;3.60;2.70;;;4.60;99.90;;;;;;5050506;28;20859;-72
2021/01/27 13:04:00;;;;;;;4.80;2.70;;;4.60;99.90;;;;;;5063994;28;20452;-72
2021/01/27 13:06:27;;;;;;;3.47;2.53;;;4.60;99.90;;;;;;5049778;28;20447;-71
2021/01/27 13:08:54;;;;;;;3.63;3.03;;;4.60;99.90;;;;;;5055235;28;20468;-72
2021/01/27 13:11:21;;;;;;;3.70;3.30;;;4.60;99.90;;;;;;5065955;28;20443;-71
2021/01/27 13:13:48;;;;;;;6.13;3.07;;;4.50;99.90;;;;;;5048219;28;20468;-72
2021/01/27 13:16:17;;;;;;;4.60;3.27;;;4.40;99.90;;;;;;5068308;28;20439;-71
2021/01/27 13:18:43;;;;;;;3.80;2.07;;;4.10;99.90;;;;;;5061435;28;21214;-70
2021/01/27 13:21:10;;;;;;;2.73;2.17;;;3.80;99.90;;;;;;5051011;28;20933;-72
2021/01/27 13:23:37;;;;;;;4.00;2.20;;;3.60;99.90;;;;;;5059930;28;20431;-71
2021/01/27 13:26:04;;;;;;;4.10;3.00;;;3.50;99.90;;;;;;5051276;28;20424;-72